sensor_id;sensor_type;location;lat;lon;timestamp;P1;durP1;ratioP1;P2;durP2;ratioP2
53674;SDS011;39574;50.534;8.500;2023-04-07T00:04:19;8.9;;;5.7;;
53674;SDS011;39574;50.534;8.500;2023-04-07T00:09:18;9.5;;;5.7;;
53674;SDS011;39574;50.534;8.500;2023-04-07T00:14:17;8.8;;;5.3;;
53674;SDS011;39574;50.534;8.500;2023-04-07T00:19:16;8.4;;;5.5;;
53674;SDS011;39574;50.534;8.500;2023-04-07T00:24:15;8.6;;;5.5;;
53674;SDS011;39574;50.534;8.500;2023-04-07T00:29:14;8.3;;;5.4;;
53674;SDS011;39574;50.534;8.500;2023-04-07T00:34:12;8.4;;;5.5;;
53674;SDS011;39574;50.534;8.500;2023-04-07T00:39:11;9.0;;;5.7;;
53674;SDS011;39574;50.534;8.500;2023-04-07T00:44:10;9.5;;;5.9;;
53674;SDS011;39574;50.534;8.500;2023-04-07T00:49:09;9.8;;;6.0;;
53674;SDS011;39574;50.534;8.500;2023-04-07T00:54:08;9.4;;;5.9;;
53674;SDS011;39574;50.534;8.500;2023-04-07T00:59:07;8.9;;;5.8;;
53674;SDS011;39574;50.534;8.500;2023-04-07T01:04:07;8.9;;;5.9;;
53674;SDS011;39574;50.534;8.500;2023-04-07T01:09:06;9.6;;;6.4;;
53674;SDS011;39574;50.534;8.500;2023-04-07T01:14:05;10.4;;;6.6;;
53674;SDS011;39574;50.534;8.500;2023-04-07T01:19:03;10.5;;;6.7;;
53674;SDS011;39574;50.534;8.500;2023-04-07T01:24:04;10.6;;;6.9;;
53674;SDS011;39574;50.534;8.500;2023-04-07T01:29:08;10.5;;;7.0;;
53674;SDS011;39574;50.534;8.500;2023-04-07T01:34:01;10.3;;;7.0;;
53674;SDS011;39574;50.534;8.500;2023-04-07T01:39:00;10.8;;;7.5;;
53674;SDS011;39574;50.534;8.500;2023-04-07T01:43:57;11.1;;;7.7;;
53674;SDS011;39574;50.534;8.500;2023-04-07T01:48:56;11.3;;;7.8;;
53674;SDS011;39574;50.534;8.500;2023-04-07T01:53:55;11.6;;;8.1;;
53674;SDS011;39574;50.534;8.500;2023-04-07T01:58:53;11.7;;;8.2;;
53674;SDS011;39574;50.534;8.500;2023-04-07T02:03:55;13.0;;;8.6;;
53674;SDS011;39574;50.534;8.500;2023-04-07T02:08:54;13.1;;;8.8;;
53674;SDS011;39574;50.534;8.500;2023-04-07T02:13:50;13.6;;;9.0;;
53674;SDS011;39574;50.534;8.500;2023-04-07T02:18:49;15.3;;;9.8;;
53674;SDS011;39574;50.534;8.500;2023-04-07T02:23:48;15.4;;;9.8;;
53674;SDS011;39574;50.534;8.500;2023-04-07T02:28:47;15.7;;;10.1;;
53674;SDS011;39574;50.534;8.500;2023-04-07T02:33:48;15.8;;;10.4;;
53674;SDS011;39574;50.534;8.500;2023-04-07T02:38:45;15.7;;;10.4;;
53674;SDS011;39574;50.534;8.500;2023-04-07T02:43:43;16.1;;;10.7;;
53674;SDS011;39574;50.534;8.500;2023-04-07T02:48:43;16.1;;;10.8;;
53674;SDS011;39574;50.534;8.500;2023-04-07T02:53:41;16.7;;;11.3;;
53674;SDS011;39574;50.534;8.500;2023-04-07T02:58:40;16.3;;;11.2;;
53674;SDS011;39574;50.534;8.500;2023-04-07T03:03:39;16.3;;;11.0;;
53674;SDS011;39574;50.534;8.500;2023-04-07T03:08:38;16.2;;;10.8;;
53674;SDS011;39574;50.534;8.500;2023-04-07T03:13:37;15.8;;;10.8;;
53674;SDS011;39574;50.534;8.500;2023-04-07T03:18:36;15.8;;;10.9;;
53674;SDS011;39574;50.534;8.500;2023-04-07T03:23:34;17.2;;;11.6;;
53674;SDS011;39574;50.534;8.500;2023-04-07T03:28:33;18.0;;;12.0;;
53674;SDS011;39574;50.534;8.500;2023-04-07T03:33:32;17.5;;;11.6;;
53674;SDS011;39574;50.534;8.500;2023-04-07T03:38:31;17.5;;;12.0;;
53674;SDS011;39574;50.534;8.500;2023-04-07T03:43:30;17.1;;;11.9;;
53674;SDS011;39574;50.534;8.500;2023-04-07T03:48:29;17.4;;;11.9;;
53674;SDS011;39574;50.534;8.500;2023-04-07T03:53:28;19.1;;;12.5;;
53674;SDS011;39574;50.534;8.500;2023-04-07T03:58:27;20.2;;;13.2;;
53674;SDS011;39574;50.534;8.500;2023-04-07T04:03:25;20.6;;;13.6;;
53674;SDS011;39574;50.534;8.500;2023-04-07T04:08:25;20.4;;;13.5;;
53674;SDS011;39574;50.534;8.500;2023-04-07T04:13:23;19.9;;;13.4;;
53674;SDS011;39574;50.534;8.500;2023-04-07T04:18:22;20.1;;;13.3;;
53674;SDS011;39574;50.534;8.500;2023-04-07T04:23:21;19.6;;;13.1;;
53674;SDS011;39574;50.534;8.500;2023-04-07T04:28:20;20.6;;;13.3;;
53674;SDS011;39574;50.534;8.500;2023-04-07T04:33:19;22.3;;;13.9;;
53674;SDS011;39574;50.534;8.500;2023-04-07T04:38:18;22.4;;;13.8;;
53674;SDS011;39574;50.534;8.500;2023-04-07T04:43:16;22.5;;;13.9;;
53674;SDS011;39574;50.534;8.500;2023-04-07T04:48:15;21.7;;;13.8;;
53674;SDS011;39574;50.534;8.500;2023-04-07T04:53:14;19.6;;;12.8;;
53674;SDS011;39574;50.534;8.500;2023-04-07T04:58:13;18.7;;;12.2;;
53674;SDS011;39574;50.534;8.500;2023-04-07T05:03:12;16.3;;;10.9;;
53674;SDS011;39574;50.534;8.500;2023-04-07T05:08:11;15.4;;;10.5;;
53674;SDS011;39574;50.534;8.500;2023-04-07T05:13:10;15.3;;;10.2;;
53674;SDS011;39574;50.534;8.500;2023-04-07T05:18:09;14.9;;;9.8;;
53674;SDS011;39574;50.534;8.500;2023-04-07T05:23:09;14.4;;;9.5;;
53674;SDS011;39574;50.534;8.500;2023-04-07T05:28:08;13.9;;;9.4;;
53674;SDS011;39574;50.534;8.500;2023-04-07T05:33:05;14.2;;;9.7;;
53674;SDS011;39574;50.534;8.500;2023-04-07T05:38:04;13.7;;;9.5;;
53674;SDS011;39574;50.534;8.500;2023-04-07T05:43:03;13.3;;;9.3;;
53674;SDS011;39574;50.534;8.500;2023-04-07T05:48:02;12.8;;;8.9;;
53674;SDS011;39574;50.534;8.500;2023-04-07T05:53:03;12.7;;;8.4;;
53674;SDS011;39574;50.534;8.500;2023-04-07T05:58:00;12.8;;;8.5;;
53674;SDS011;39574;50.534;8.500;2023-04-07T06:02:59;13.0;;;8.6;;
53674;SDS011;39574;50.534;8.500;2023-04-07T06:07:58;12.5;;;8.3;;
53674;SDS011;39574;50.534;8.500;2023-04-07T06:12:56;11.8;;;8.1;;
53674;SDS011;39574;50.534;8.500;2023-04-07T06:17:55;11.4;;;7.9;;
53674;SDS011;39574;50.534;8.500;2023-04-07T06:22:54;11.1;;;7.8;;
53674;SDS011;39574;50.534;8.500;2023-04-07T06:27:54;11.3;;;7.6;;
53674;SDS011;39574;50.534;8.500;2023-04-07T06:32:52;10.7;;;7.2;;
53674;SDS011;39574;50.534;8.500;2023-04-07T06:37:51;10.1;;;7.0;;
53674;SDS011;39574;50.534;8.500;2023-04-07T06:42:50;9.9;;;6.8;;
53674;SDS011;39574;50.534;8.500;2023-04-07T06:47:49;10.2;;;7.0;;
53674;SDS011;39574;50.534;8.500;2023-04-07T06:52:48;10.1;;;6.9;;
53674;SDS011;39574;50.534;8.500;2023-04-07T06:57:47;10.1;;;6.8;;
53674;SDS011;39574;50.534;8.500;2023-04-07T07:02:45;10.3;;;6.9;;
53674;SDS011;39574;50.534;8.500;2023-04-07T07:07:47;10.6;;;7.0;;
53674;SDS011;39574;50.534;8.500;2023-04-07T07:12:43;10.8;;;7.4;;
53674;SDS011;39574;50.534;8.500;2023-04-07T07:17:42;11.2;;;7.8;;
53674;SDS011;39574;50.534;8.500;2023-04-07T07:22:41;11.1;;;7.7;;
53674;SDS011;39574;50.534;8.500;2023-04-07T07:27:40;10.9;;;7.5;;
53674;SDS011;39574;50.534;8.500;2023-04-07T07:37:38;10.4;;;7.0;;
53674;SDS011;39574;50.534;8.500;2023-04-07T07:42:37;10.2;;;6.9;;
53674;SDS011;39574;50.534;8.500;2023-04-07T07:47:35;11.0;;;7.5;;
53674;SDS011;39574;50.534;8.500;2023-04-07T07:52:34;12.0;;;8.3;;
53674;SDS011;39574;50.534;8.500;2023-04-07T07:57:33;11.8;;;8.1;;
53674;SDS011;39574;50.534;8.500;2023-04-07T08:02:32;12.2;;;8.5;;
53674;SDS011;39574;50.534;8.500;2023-04-07T08:07:31;12.1;;;8.5;;
53674;SDS011;39574;50.534;8.500;2023-04-07T08:12:30;12.1;;;8.3;;
53674;SDS011;39574;50.534;8.500;2023-04-07T08:17:29;12.5;;;8.5;;
53674;SDS011;39574;50.534;8.500;2023-04-07T08:22:28;12.1;;;8.2;;
53674;SDS011;39574;50.534;8.500;2023-04-07T08:27:26;12.7;;;8.8;;
53674;SDS011;39574;50.534;8.500;2023-04-07T08:32:32;12.9;;;8.7;;
53674;SDS011;39574;50.534;8.500;2023-04-07T08:37:25;12.4;;;8.4;;
53674;SDS011;39574;50.534;8.500;2023-04-07T08:42:24;11.7;;;8.1;;
53674;SDS011;39574;50.534;8.500;2023-04-07T08:47:23;11.3;;;7.8;;
53674;SDS011;39574;50.534;8.500;2023-04-07T08:52:22;11.5;;;8.0;;
53674;SDS011;39574;50.534;8.500;2023-04-07T08:57:20;11.9;;;8.0;;
53674;SDS011;39574;50.534;8.500;2023-04-07T09:02:19;11.2;;;7.5;;
53674;SDS011;39574;50.534;8.500;2023-04-07T09:07:18;10.9;;;7.3;;
53674;SDS011;39574;50.534;8.500;2023-04-07T09:12:17;10.3;;;7.0;;
53674;SDS011;39574;50.534;8.500;2023-04-07T09:17:16;9.8;;;6.5;;
53674;SDS011;39574;50.534;8.500;2023-04-07T09:22:18;8.9;;;6.1;;
53674;SDS011;39574;50.534;8.500;2023-04-07T09:27:15;8.5;;;5.8;;
53674;SDS011;39574;50.534;8.500;2023-04-07T09:32:15;7.9;;;5.5;;
53674;SDS011;39574;50.534;8.500;2023-04-07T09:37:20;8.2;;;5.7;;
53674;SDS011;39574;50.534;8.500;2023-04-07T09:42:10;7.8;;;5.4;;
53674;SDS011;39574;50.534;8.500;2023-04-07T09:47:09;7.6;;;5.4;;
53674;SDS011;39574;50.534;8.500;2023-04-07T09:52:08;7.2;;;5.0;;
53674;SDS011;39574;50.534;8.500;2023-04-07T09:57:08;7.0;;;4.8;;
53674;SDS011;39574;50.534;8.500;2023-04-07T10:02:06;7.3;;;4.7;;
53674;SDS011;39574;50.534;8.500;2023-04-07T10:07:05;6.9;;;4.5;;
53674;SDS011;39574;50.534;8.500;2023-04-07T10:12:04;6.3;;;4.1;;
53674;SDS011;39574;50.534;8.500;2023-04-07T10:17:03;5.8;;;3.8;;
53674;SDS011;39574;50.534;8.500;2023-04-07T10:22:02;5.8;;;3.7;;
53674;SDS011;39574;50.534;8.500;2023-04-07T10:27:02;5.4;;;3.5;;
53674;SDS011;39574;50.534;8.500;2023-04-07T10:32:00;5.2;;;3.4;;
53674;SDS011;39574;50.534;8.500;2023-04-07T10:37:14;5.3;;;3.4;;
53674;SDS011;39574;50.534;8.500;2023-04-07T10:41:57;5.1;;;3.5;;
53674;SDS011;39574;50.534;8.500;2023-04-07T10:47:04;4.6;;;3.2;;
53674;SDS011;39574;50.534;8.500;2023-04-07T10:52:20;4.8;;;3.4;;
53674;SDS011;39574;50.534;8.500;2023-04-07T10:57:11;5.3;;;3.6;;
53674;SDS011;39574;50.534;8.500;2023-04-07T11:02:03;5.5;;;3.8;;
53674;SDS011;39574;50.534;8.500;2023-04-07T11:06:53;5.4;;;3.8;;
53674;SDS011;39574;50.534;8.500;2023-04-07T11:11:51;5.9;;;4.0;;
53674;SDS011;39574;50.534;8.500;2023-04-07T11:16:50;6.2;;;3.8;;
53674;SDS011;39574;50.534;8.500;2023-04-07T11:21:49;6.2;;;3.8;;
53674;SDS011;39574;50.534;8.500;2023-04-07T11:26:48;6.3;;;3.8;;
53674;SDS011;39574;50.534;8.500;2023-04-07T11:31:47;5.5;;;3.6;;
53674;SDS011;39574;50.534;8.500;2023-04-07T11:36:46;5.2;;;3.6;;
53674;SDS011;39574;50.534;8.500;2023-04-07T11:41:45;5.0;;;3.7;;
53674;SDS011;39574;50.534;8.500;2023-04-07T11:46:52;4.7;;;3.4;;
53674;SDS011;39574;50.534;8.500;2023-04-07T11:51:43;4.5;;;3.2;;
53674;SDS011;39574;50.534;8.500;2023-04-07T11:56:42;5.5;;;3.5;;
53674;SDS011;39574;50.534;8.500;2023-04-07T12:01:40;5.7;;;3.6;;
53674;SDS011;39574;50.534;8.500;2023-04-07T12:06:39;7.3;;;4.5;;
53674;SDS011;39574;50.534;8.500;2023-04-07T12:11:47;8.0;;;5.4;;
53674;SDS011;39574;50.534;8.500;2023-04-07T12:16:41;8.4;;;6.0;;
53674;SDS011;39574;50.534;8.500;2023-04-07T12:21:36;8.4;;;6.1;;
53674;SDS011;39574;50.534;8.500;2023-04-07T12:26:36;8.0;;;6.0;;
53674;SDS011;39574;50.534;8.500;2023-04-07T12:36:33;8.7;;;6.2;;
53674;SDS011;39574;50.534;8.500;2023-04-07T12:41:32;8.6;;;6.1;;
53674;SDS011;39574;50.534;8.500;2023-04-07T12:46:31;8.4;;;6.0;;
53674;SDS011;39574;50.534;8.500;2023-04-07T12:51:30;8.2;;;5.6;;
53674;SDS011;39574;50.534;8.500;2023-04-07T12:56:29;8.0;;;5.1;;
53674;SDS011;39574;50.534;8.500;2023-04-07T13:01:28;7.7;;;4.9;;
53674;SDS011;39574;50.534;8.500;2023-04-07T13:06:27;7.7;;;5.3;;
53674;SDS011;39574;50.534;8.500;2023-04-07T13:11:26;7.1;;;4.8;;
53674;SDS011;39574;50.534;8.500;2023-04-07T13:16:25;6.4;;;4.5;;
53674;SDS011;39574;50.534;8.500;2023-04-07T13:21:24;6.2;;;4.5;;
53674;SDS011;39574;50.534;8.500;2023-04-07T13:26:23;5.5;;;4.0;;
53674;SDS011;39574;50.534;8.500;2023-04-07T13:31:24;14.8;;;8.4;;
53674;SDS011;39574;50.534;8.500;2023-04-07T13:36:21;15.1;;;9.2;;
53674;SDS011;39574;50.534;8.500;2023-04-07T13:41:21;13.8;;;8.3;;
53674;SDS011;39574;50.534;8.500;2023-04-07T13:46:19;9.8;;;6.0;;
53674;SDS011;39574;50.534;8.500;2023-04-07T13:51:18;6.0;;;3.9;;
53674;SDS011;39574;50.534;8.500;2023-04-07T13:56:17;4.4;;;2.9;;
53674;SDS011;39574;50.534;8.500;2023-04-07T14:01:16;3.9;;;2.5;;
53674;SDS011;39574;50.534;8.500;2023-04-07T14:06:15;4.0;;;2.5;;
53674;SDS011;39574;50.534;8.500;2023-04-07T14:16:13;3.9;;;2.6;;
53674;SDS011;39574;50.534;8.500;2023-04-07T14:21:11;5.1;;;3.3;;
53674;SDS011;39574;50.534;8.500;2023-04-07T14:26:13;4.6;;;2.9;;
53674;SDS011;39574;50.534;8.500;2023-04-07T14:31:11;3.6;;;2.3;;
53674;SDS011;39574;50.534;8.500;2023-04-07T14:36:09;2.8;;;1.8;;
53674;SDS011;39574;50.534;8.500;2023-04-07T14:41:08;2.0;;;1.3;;
53674;SDS011;39574;50.534;8.500;2023-04-07T14:46:07;1.6;;;1.1;;
53674;SDS011;39574;50.534;8.500;2023-04-07T14:51:09;1.5;;;1.0;;
53674;SDS011;39574;50.534;8.500;2023-04-07T14:56:05;1.6;;;1.1;;
53674;SDS011;39574;50.534;8.500;2023-04-07T15:01:04;1.8;;;1.0;;
53674;SDS011;39574;50.534;8.500;2023-04-07T15:06:06;2.0;;;1.2;;
53674;SDS011;39574;50.534;8.500;2023-04-07T15:11:02;2.1;;;1.2;;
53674;SDS011;39574;50.534;8.500;2023-04-07T15:16:05;2.3;;;1.3;;
53674;SDS011;39574;50.534;8.500;2023-04-07T15:21:00;2.6;;;1.6;;
53674;SDS011;39574;50.534;8.500;2023-04-07T15:25:59;2.8;;;1.9;;
53674;SDS011;39574;50.534;8.500;2023-04-07T15:30:58;11.0;;;6.7;;
53674;SDS011;39574;50.534;8.500;2023-04-07T15:35:57;12.3;;;7.6;;
53674;SDS011;39574;50.534;8.500;2023-04-07T15:40:55;11.5;;;7.4;;
53674;SDS011;39574;50.534;8.500;2023-04-07T15:45:54;9.6;;;6.3;;
53674;SDS011;39574;50.534;8.500;2023-04-07T15:50:53;7.2;;;4.8;;
53674;SDS011;39574;50.534;8.500;2023-04-07T15:55:52;6.4;;;4.3;;
53674;SDS011;39574;50.534;8.500;2023-04-07T16:00:51;6.4;;;4.1;;
53674;SDS011;39574;50.534;8.500;2023-04-07T16:05:50;6.2;;;4.2;;
53674;SDS011;39574;50.534;8.500;2023-04-07T16:10:49;5.5;;;3.8;;
53674;SDS011;39574;50.534;8.500;2023-04-07T16:15:48;6.6;;;4.4;;
53674;SDS011;39574;50.534;8.500;2023-04-07T16:20:47;7.3;;;4.7;;
53674;SDS011;39574;50.534;8.500;2023-04-07T16:25:47;7.2;;;4.6;;
53674;SDS011;39574;50.534;8.500;2023-04-07T16:30:45;6.7;;;4.7;;
53674;SDS011;39574;50.534;8.500;2023-04-07T16:35:44;5.6;;;4.0;;
53674;SDS011;39574;50.534;8.500;2023-04-07T16:40:44;5.2;;;3.6;;
53674;SDS011;39574;50.534;8.500;2023-04-07T16:45:48;4.3;;;3.0;;
53674;SDS011;39574;50.534;8.500;2023-04-07T16:50:42;4.8;;;2.9;;
53674;SDS011;39574;50.534;8.500;2023-04-07T16:55:40;4.8;;;2.9;;
53674;SDS011;39574;50.534;8.500;2023-04-07T17:00:39;4.5;;;3.0;;
53674;SDS011;39574;50.534;8.500;2023-04-07T17:05:38;4.0;;;2.7;;
53674;SDS011;39574;50.534;8.500;2023-04-07T17:15:36;4.7;;;3.3;;
53674;SDS011;39574;50.534;8.500;2023-04-07T17:20:35;4.5;;;3.2;;
53674;SDS011;39574;50.534;8.500;2023-04-07T17:25:35;4.7;;;2.9;;
53674;SDS011;39574;50.534;8.500;2023-04-07T17:30:34;4.1;;;2.7;;
53674;SDS011;39574;50.534;8.500;2023-04-07T17:35:32;4.0;;;2.6;;
53674;SDS011;39574;50.534;8.500;2023-04-07T17:40:31;3.9;;;2.6;;
53674;SDS011;39574;50.534;8.500;2023-04-07T17:45:30;3.7;;;2.6;;
53674;SDS011;39574;50.534;8.500;2023-04-07T17:50:30;3.9;;;2.6;;
53674;SDS011;39574;50.534;8.500;2023-04-07T17:55:28;4.5;;;3.1;;
53674;SDS011;39574;50.534;8.500;2023-04-07T18:00:27;4.2;;;2.9;;
53674;SDS011;39574;50.534;8.500;2023-04-07T18:05:26;4.4;;;2.8;;
53674;SDS011;39574;50.534;8.500;2023-04-07T18:10:25;4.1;;;2.6;;
53674;SDS011;39574;50.534;8.500;2023-04-07T18:15:25;3.8;;;2.5;;
53674;SDS011;39574;50.534;8.500;2023-04-07T18:20:23;3.9;;;2.7;;
53674;SDS011;39574;50.534;8.500;2023-04-07T18:25:22;4.3;;;2.9;;
53674;SDS011;39574;50.534;8.500;2023-04-07T18:30:21;5.9;;;3.6;;
53674;SDS011;39574;50.534;8.500;2023-04-07T18:35:20;6.9;;;4.7;;
53674;SDS011;39574;50.534;8.500;2023-04-07T18:40:19;7.7;;;5.5;;
53674;SDS011;39574;50.534;8.500;2023-04-07T18:45:18;8.0;;;5.5;;
53674;SDS011;39574;50.534;8.500;2023-04-07T18:50:17;7.5;;;5.5;;
53674;SDS011;39574;50.534;8.500;2023-04-07T18:55:16;7.1;;;5.2;;
53674;SDS011;39574;50.534;8.500;2023-04-07T19:00:16;6.1;;;4.6;;
53674;SDS011;39574;50.534;8.500;2023-04-07T19:05:14;5.6;;;4.3;;
53674;SDS011;39574;50.534;8.500;2023-04-07T19:10:15;6.0;;;4.5;;
53674;SDS011;39574;50.534;8.500;2023-04-07T19:15:12;8.3;;;6.1;;
53674;SDS011;39574;50.534;8.500;2023-04-07T19:25:10;9.3;;;6.3;;
53674;SDS011;39574;50.534;8.500;2023-04-07T19:30:09;10.7;;;7.1;;
53674;SDS011;39574;50.534;8.500;2023-04-07T19:35:09;10.3;;;7.1;;
53674;SDS011;39574;50.534;8.500;2023-04-07T19:40:08;10.3;;;6.9;;
53674;SDS011;39574;50.534;8.500;2023-04-07T19:45:06;9.3;;;6.6;;
53674;SDS011;39574;50.534;8.500;2023-04-07T19:50:05;10.9;;;7.9;;
53674;SDS011;39574;50.534;8.500;2023-04-07T19:55:04;11.6;;;8.3;;
53674;SDS011;39574;50.534;8.500;2023-04-07T20:00:04;11.2;;;8.3;;
53674;SDS011;39574;50.534;8.500;2023-04-07T20:05:01;11.7;;;8.6;;
53674;SDS011;39574;50.534;8.500;2023-04-07T20:10:00;11.1;;;8.5;;
53674;SDS011;39574;50.534;8.500;2023-04-07T20:14:59;11.1;;;8.2;;
53674;SDS011;39574;50.534;8.500;2023-04-07T20:19:58;12.4;;;8.8;;
53674;SDS011;39574;50.534;8.500;2023-04-07T20:24:57;14.3;;;9.6;;
53674;SDS011;39574;50.534;8.500;2023-04-07T20:29:56;19.3;;;13.0;;
53674;SDS011;39574;50.534;8.500;2023-04-07T20:34:55;18.4;;;12.4;;
53674;SDS011;39574;50.534;8.500;2023-04-07T20:39:54;18.4;;;12.3;;
53674;SDS011;39574;50.534;8.500;2023-04-07T20:44:53;17.0;;;11.3;;
53674;SDS011;39574;50.534;8.500;2023-04-07T20:49:52;12.3;;;8.4;;
53674;SDS011;39574;50.534;8.500;2023-04-07T20:54:51;12.9;;;8.5;;
53674;SDS011;39574;50.534;8.500;2023-04-07T20:59:49;10.6;;;7.4;;
53674;SDS011;39574;50.534;8.500;2023-04-07T21:09:48;12.2;;;7.9;;
53674;SDS011;39574;50.534;8.500;2023-04-07T21:14:47;14.2;;;9.1;;
53674;SDS011;39574;50.534;8.500;2023-04-07T21:19:45;12.0;;;7.9;;
53674;SDS011;39574;50.534;8.500;2023-04-07T21:24:45;11.8;;;7.8;;
53674;SDS011;39574;50.534;8.500;2023-04-07T21:29:43;12.1;;;8.1;;
53674;SDS011;39574;50.534;8.500;2023-04-07T21:34:42;10.9;;;7.3;;
53674;SDS011;39574;50.534;8.500;2023-04-07T21:39:41;9.4;;;6.7;;
53674;SDS011;39574;50.534;8.500;2023-04-07T21:44:40;9.5;;;6.5;;
53674;SDS011;39574;50.534;8.500;2023-04-07T21:49:39;9.0;;;6.0;;
53674;SDS011;39574;50.534;8.500;2023-04-07T21:54:38;8.3;;;5.5;;
53674;SDS011;39574;50.534;8.500;2023-04-07T21:59:37;8.3;;;5.6;;
53674;SDS011;39574;50.534;8.500;2023-04-07T22:04:36;9.3;;;5.4;;
53674;SDS011;39574;50.534;8.500;2023-04-07T22:09:35;9.9;;;6.2;;
53674;SDS011;39574;50.534;8.500;2023-04-07T22:14:33;9.5;;;6.0;;
53674;SDS011;39574;50.534;8.500;2023-04-07T22:19:33;8.5;;;5.5;;
53674;SDS011;39574;50.534;8.500;2023-04-07T22:24:32;10.4;;;7.7;;
53674;SDS011;39574;50.534;8.500;2023-04-07T22:29:30;10.7;;;7.9;;
53674;SDS011;39574;50.534;8.500;2023-04-07T22:34:29;9.8;;;6.9;;
53674;SDS011;39574;50.534;8.500;2023-04-07T22:39:28;9.9;;;6.1;;
53674;SDS011;39574;50.534;8.500;2023-04-07T22:44:27;9.5;;;5.6;;
53674;SDS011;39574;50.534;8.500;2023-04-07T22:49:26;14.1;;;6.5;;
53674;SDS011;39574;50.534;8.500;2023-04-07T22:54:25;13.6;;;6.7;;
53674;SDS011;39574;50.534;8.500;2023-04-07T22:59:24;15.0;;;7.1;;
53674;SDS011;39574;50.534;8.500;2023-04-07T23:04:23;14.7;;;7.2;;
53674;SDS011;39574;50.534;8.500;2023-04-07T23:09:21;15.4;;;7.7;;
53674;SDS011;39574;50.534;8.500;2023-04-07T23:14:21;36.5;;;9.3;;
53674;SDS011;39574;50.534;8.500;2023-04-07T23:19:19;30.1;;;8.7;;
53674;SDS011;39574;50.534;8.500;2023-04-07T23:24:18;23.3;;;7.7;;
53674;SDS011;39574;50.534;8.500;2023-04-07T23:29:19;16.6;;;7.0;;
53674;SDS011;39574;50.534;8.500;2023-04-07T23:34:16;15.1;;;7.3;;
53674;SDS011;39574;50.534;8.500;2023-04-07T23:39:15;40.5;;;9.8;;
53674;SDS011;39574;50.534;8.500;2023-04-07T23:44:14;88.9;;;14.1;;
53674;SDS011;39574;50.534;8.500;2023-04-07T23:49:12;66.9;;;11.7;;
53674;SDS011;39574;50.534;8.500;2023-04-07T23:59:10;69.3;;;11.6;;
